createdAt,value
2019-01-08T00:07:31.926Z,27.30
2019-01-08T00:17:37.251Z,29.17
2019-01-08T00:27:42.682Z,25.87
2019-01-08T00:37:48.006Z,25.73
2019-01-08T00:47:53.338Z,24.90
2019-01-08T00:57:58.812Z,22.63
2019-01-08T01:08:04.164Z,23.90
2019-01-08T01:18:09.546Z,21.60
2019-01-08T01:28:14.992Z,20.47
2019-01-08T01:38:20.428Z,22.13
2019-01-08T01:48:25.760Z,19.70
2019-01-08T01:58:31.058Z,17.60
2019-01-08T02:08:36.347Z,19.50
2019-01-08T02:18:41.608Z,17.67
2019-01-08T02:28:46.962Z,19.30
2019-01-08T02:38:52.380Z,18.00
2019-01-08T02:48:57.699Z,18.13
2019-01-08T02:59:03.082Z,18.37
2019-01-08T03:09:08.394Z,18.50
2019-01-08T03:19:13.776Z,20.03
2019-01-08T03:29:19.087Z,18.13
2019-01-08T03:39:24.429Z,19.67
2019-01-08T03:49:29.761Z,17.70
2019-01-08T03:59:41.911Z,18.27
2019-01-08T04:09:42.052Z,19.87
2019-01-08T04:19:47.354Z,19.50
2019-01-08T04:29:52.683Z,19.20
2019-01-08T04:39:57.997Z,16.73
2019-01-08T04:50:03.312Z,19.83
2019-01-08T05:00:09.182Z,19.20
2019-01-08T05:10:14.606Z,20.27
2019-01-08T05:20:19.891Z,17.87
2019-01-08T05:30:25.336Z,18.87
2019-01-08T05:40:30.651Z,20.33
2019-01-08T05:50:36.058Z,19.50
2019-01-08T06:00:41.365Z,20.20
2019-01-08T06:10:46.796Z,20.37
2019-01-08T06:20:52.480Z,21.10
2019-01-08T06:30:57.804Z,19.67
2019-01-08T06:41:03.152Z,19.50
2019-01-08T06:51:08.504Z,19.90
2019-01-08T07:01:13.925Z,19.87
2019-01-08T07:11:19.270Z,19.83
2019-01-08T07:21:24.632Z,20.70
2019-01-08T07:31:31.207Z,22.17
2019-01-08T07:41:36.672Z,21.97
2019-01-08T07:51:42.219Z,23.57
2019-01-08T08:01:47.834Z,22.43
2019-01-08T08:11:53.184Z,22.47
2019-01-08T08:21:58.602Z,23.60
2019-01-08T08:32:05.402Z,23.13
2019-01-08T08:42:10.988Z,23.93
2019-01-08T08:52:16.758Z,24.27
2019-01-08T09:02:22.493Z,24.77
2019-01-08T09:12:27.818Z,25.03
2019-01-08T09:22:33.311Z,23.90
2019-01-08T09:32:38.744Z,25.13
2019-01-08T09:42:44.220Z,24.63
2019-01-08T09:52:49.551Z,25.07
2019-01-08T10:02:55.020Z,23.90
2019-01-08T10:13:00.343Z,24.10
2019-01-08T10:23:10.028Z,24.33
2019-01-08T10:33:12.851Z,25.10
2019-01-08T10:43:18.270Z,23.13
2019-01-08T10:53:23.581Z,23.50
2019-01-08T11:03:28.938Z,23.70
2019-01-08T11:13:34.286Z,20.73
2019-01-08T11:23:39.674Z,21.17
2019-01-08T11:33:45.290Z,20.80
2019-01-08T11:43:50.599Z,20.30
2019-01-08T11:53:56.137Z,21.10
2019-01-08T12:04:01.659Z,18.60
2019-01-08T12:14:07.045Z,20.83
2019-01-08T12:24:12.599Z,18.47
2019-01-08T12:34:18.190Z,17.53
2019-01-08T12:44:24.075Z,19.40
2019-01-08T12:54:29.317Z,18.47
2019-01-08T13:04:34.857Z,19.07
2019-01-08T13:14:40.276Z,19.93
2019-01-08T13:24:45.564Z,19.60
2019-01-08T13:34:51.000Z,18.07
2019-01-08T13:44:56.490Z,18.10
2019-01-08T13:55:02.072Z,17.47
2019-01-08T14:05:08.276Z,17.33
2019-01-08T14:15:13.610Z,17.30
2019-01-08T14:25:19.276Z,15.50
2019-01-08T14:35:24.694Z,17.07
2019-01-08T14:45:30.230Z,17.37
2019-01-08T14:55:36.043Z,15.77
2019-01-08T15:05:42.242Z,16.53
2019-01-08T15:15:48.667Z,16.93
2019-01-08T15:25:56.525Z,18.13
2019-01-08T15:36:02.845Z,17.33
2019-01-08T15:46:10.349Z,18.40
2019-01-08T15:56:15.693Z,17.90
2019-01-08T16:06:20.992Z,16.73
2019-01-08T16:16:26.330Z,19.13
2019-01-08T16:26:31.930Z,19.23
2019-01-08T16:36:37.269Z,19.20
2019-01-08T16:46:43.061Z,19.27
2019-01-08T16:56:48.345Z,20.30
2019-01-08T17:06:53.834Z,18.47
2019-01-08T17:16:59.223Z,19.13
2019-01-08T17:27:04.677Z,18.10
2019-01-08T17:37:10.987Z,17.57
2019-01-08T17:47:16.399Z,18.47
2019-01-08T17:57:21.822Z,19.17
2019-01-08T18:07:27.277Z,21.10
2019-01-08T18:17:32.618Z,20.47
2019-01-08T18:27:37.957Z,20.87
2019-01-08T18:37:43.335Z,20.97
2019-01-08T18:47:48.868Z,21.20
2019-01-08T18:57:54.164Z,23.77
2019-01-08T19:07:59.482Z,21.00
2019-01-08T19:18:04.852Z,21.40
2019-01-08T19:28:10.174Z,20.83
2019-01-08T19:38:15.486Z,21.67
2019-01-08T19:48:20.958Z,21.80
2019-01-08T19:58:26.296Z,22.83
2019-01-08T20:08:31.846Z,22.83
2019-01-08T20:18:45.002Z,22.47
2019-01-08T20:28:45.110Z,22.63
2019-01-08T20:38:50.498Z,23.77
2019-01-08T20:48:55.956Z,22.77
2019-01-08T20:59:00.642Z,22.43
2019-01-08T21:09:06.539Z,21.57
2019-01-08T21:19:11.161Z,20.10
2019-01-08T21:29:15.804Z,21.20
2019-01-08T21:39:20.485Z,21.83
2019-01-08T21:49:25.227Z,20.90
2019-01-08T21:59:29.906Z,22.00
2019-01-08T22:09:34.602Z,18.30
2019-01-08T22:19:39.360Z,18.53
2019-01-08T22:29:44.153Z,19.67
2019-01-08T22:39:48.927Z,21.03
2019-01-08T22:49:53.668Z,21.30
2019-01-08T22:59:58.359Z,18.30
2019-01-08T23:10:05.714Z,20.10
2019-01-08T23:20:11.559Z,18.23
2019-01-08T23:30:16.271Z,20.50
2019-01-08T23:40:21.596Z,21.70
2019-01-08T23:50:26.929Z,19.27
